sensor_id;sensor_type;location;lat;lon;timestamp;P1;durP1;ratioP1;P2;durP2;ratioP2
28353;SDS011;15603;50.878;8.036;2022-10-16T00:01:21;9.13;;;2.20;;
28353;SDS011;15603;50.878;8.036;2022-10-16T00:03:49;11.38;;;2.53;;
28353;SDS011;15603;50.878;8.036;2022-10-16T00:06:18;10.88;;;1.92;;
28353;SDS011;15603;50.878;8.036;2022-10-16T00:08:47;5.05;;;1.48;;
28353;SDS011;15603;50.878;8.036;2022-10-16T00:11:20;10.43;;;1.70;;
28353;SDS011;15603;50.878;8.036;2022-10-16T00:13:50;8.80;;;1.92;;
28353;SDS011;15603;50.878;8.036;2022-10-16T00:16:18;10.15;;;1.73;;
28353;SDS011;15603;50.878;8.036;2022-10-16T00:18:46;6.47;;;1.65;;
28353;SDS011;15603;50.878;8.036;2022-10-16T00:21:15;7.25;;;1.90;;
28353;SDS011;15603;50.878;8.036;2022-10-16T00:23:44;11.88;;;2.33;;
28353;SDS011;15603;50.878;8.036;2022-10-16T00:26:13;8.93;;;1.58;;
28353;SDS011;15603;50.878;8.036;2022-10-16T00:28:42;8.32;;;1.92;;
28353;SDS011;15603;50.878;8.036;2022-10-16T00:31:10;16.23;;;1.92;;
28353;SDS011;15603;50.878;8.036;2022-10-16T00:33:38;5.18;;;1.90;;
28353;SDS011;15603;50.878;8.036;2022-10-16T00:36:07;3.40;;;1.50;;
28353;SDS011;15603;50.878;8.036;2022-10-16T00:38:36;7.90;;;1.55;;
28353;SDS011;15603;50.878;8.036;2022-10-16T00:41:05;13.93;;;1.58;;
28353;SDS011;15603;50.878;8.036;2022-10-16T00:43:42;48.13;;;4.30;;
28353;SDS011;15603;50.878;8.036;2022-10-16T00:46:35;10.80;;;1.98;;
28353;SDS011;15603;50.878;8.036;2022-10-16T00:49:19;8.00;;;1.98;;
28353;SDS011;15603;50.878;8.036;2022-10-16T00:51:48;5.53;;;1.88;;
28353;SDS011;15603;50.878;8.036;2022-10-16T00:54:19;6.35;;;1.40;;
28353;SDS011;15603;50.878;8.036;2022-10-16T00:56:49;19.48;;;2.00;;
28353;SDS011;15603;50.878;8.036;2022-10-16T01:01:49;11.43;;;1.50;;
28353;SDS011;15603;50.878;8.036;2022-10-16T01:04:16;6.85;;;1.92;;
28353;SDS011;15603;50.878;8.036;2022-10-16T01:06:51;10.00;;;2.35;;
28353;SDS011;15603;50.878;8.036;2022-10-16T01:09:35;6.63;;;1.42;;
28353;SDS011;15603;50.878;8.036;2022-10-16T01:12:13;11.80;;;2.15;;
28353;SDS011;15603;50.878;8.036;2022-10-16T01:18:05;8.10;;;1.88;;
28353;SDS011;15603;50.878;8.036;2022-10-16T01:26:07;13.85;;;2.10;;
28353;SDS011;15603;50.878;8.036;2022-10-16T01:28:52;6.88;;;1.73;;
28353;SDS011;15603;50.878;8.036;2022-10-16T01:31:22;3.67;;;1.88;;
28353;SDS011;15603;50.878;8.036;2022-10-16T01:34:28;3.20;;;1.63;;
28353;SDS011;15603;50.878;8.036;2022-10-16T01:36:50;5.13;;;1.40;;
28353;SDS011;15603;50.878;8.036;2022-10-16T01:39:22;2.95;;;1.27;;
28353;SDS011;15603;50.878;8.036;2022-10-16T01:41:58;8.48;;;3.13;;
28353;SDS011;15603;50.878;8.036;2022-10-16T01:44:31;6.10;;;2.60;;
28353;SDS011;15603;50.878;8.036;2022-10-16T01:47:00;6.97;;;3.30;;
28353;SDS011;15603;50.878;8.036;2022-10-16T01:49:29;6.10;;;2.50;;
28353;SDS011;15603;50.878;8.036;2022-10-16T01:52:00;7.40;;;2.50;;
28353;SDS011;15603;50.878;8.036;2022-10-16T01:54:32;6.35;;;2.45;;
28353;SDS011;15603;50.878;8.036;2022-10-16T01:57:04;4.40;;;1.92;;
28353;SDS011;15603;50.878;8.036;2022-10-16T01:59:42;6.88;;;1.40;;
28353;SDS011;15603;50.878;8.036;2022-10-16T02:02:13;6.38;;;1.23;;
28353;SDS011;15603;50.878;8.036;2022-10-16T02:04:45;2.38;;;1.00;;
28353;SDS011;15603;50.878;8.036;2022-10-16T02:07:16;6.00;;;1.30;;
28353;SDS011;15603;50.878;8.036;2022-10-16T02:09:43;10.48;;;1.65;;
28353;SDS011;15603;50.878;8.036;2022-10-16T02:12:17;13.25;;;1.60;;
28353;SDS011;15603;50.878;8.036;2022-10-16T02:14:52;4.00;;;1.63;;
28353;SDS011;15603;50.878;8.036;2022-10-16T02:17:20;8.98;;;1.52;;
28353;SDS011;15603;50.878;8.036;2022-10-16T02:19:48;4.95;;;1.05;;
28353;SDS011;15603;50.878;8.036;2022-10-16T02:22:32;9.38;;;1.60;;
28353;SDS011;15603;50.878;8.036;2022-10-16T02:30:19;4.70;;;1.13;;
28353;SDS011;15603;50.878;8.036;2022-10-16T02:32:51;11.20;;;1.40;;
28353;SDS011;15603;50.878;8.036;2022-10-16T02:35:21;15.32;;;1.35;;
28353;SDS011;15603;50.878;8.036;2022-10-16T02:37:50;14.60;;;3.13;;
28353;SDS011;15603;50.878;8.036;2022-10-16T02:40:17;9.23;;;1.20;;
28353;SDS011;15603;50.878;8.036;2022-10-16T02:42:52;7.68;;;1.17;;
28353;SDS011;15603;50.878;8.036;2022-10-16T02:45:20;9.40;;;1.30;;
28353;SDS011;15603;50.878;8.036;2022-10-16T02:47:48;9.55;;;1.33;;
28353;SDS011;15603;50.878;8.036;2022-10-16T02:50:16;13.65;;;2.90;;
28353;SDS011;15603;50.878;8.036;2022-10-16T02:52:43;5.53;;;1.30;;
28353;SDS011;15603;50.878;8.036;2022-10-16T02:55:10;0.85;;;0.80;;
28353;SDS011;15603;50.878;8.036;2022-10-16T02:57:37;3.65;;;0.90;;
28353;SDS011;15603;50.878;8.036;2022-10-16T03:00:07;9.13;;;1.25;;
28353;SDS011;15603;50.878;8.036;2022-10-16T03:02:36;3.90;;;1.15;;
28353;SDS011;15603;50.878;8.036;2022-10-16T03:05:03;9.20;;;1.30;;
28353;SDS011;15603;50.878;8.036;2022-10-16T03:07:31;8.90;;;1.20;;
28353;SDS011;15603;50.878;8.036;2022-10-16T03:09:58;16.65;;;3.00;;
28353;SDS011;15603;50.878;8.036;2022-10-16T03:12:27;4.60;;;1.05;;
28353;SDS011;15603;50.878;8.036;2022-10-16T03:14:55;8.30;;;1.17;;
28353;SDS011;15603;50.878;8.036;2022-10-16T03:17:23;6.60;;;2.13;;
28353;SDS011;15603;50.878;8.036;2022-10-16T03:19:51;9.23;;;1.27;;
28353;SDS011;15603;50.878;8.036;2022-10-16T03:22:19;6.80;;;1.60;;
28353;SDS011;15603;50.878;8.036;2022-10-16T03:24:46;1.73;;;1.13;;
28353;SDS011;15603;50.878;8.036;2022-10-16T03:27:13;8.55;;;1.80;;
28353;SDS011;15603;50.878;8.036;2022-10-16T03:29:40;5.15;;;1.10;;
28353;SDS011;15603;50.878;8.036;2022-10-16T03:32:07;8.60;;;1.23;;
28353;SDS011;15603;50.878;8.036;2022-10-16T03:34:34;5.60;;;1.33;;
28353;SDS011;15603;50.878;8.036;2022-10-16T03:37:01;10.02;;;1.13;;
28353;SDS011;15603;50.878;8.036;2022-10-16T03:39:28;3.65;;;1.08;;
28353;SDS011;15603;50.878;8.036;2022-10-16T03:41:55;12.27;;;1.42;;
28353;SDS011;15603;50.878;8.036;2022-10-16T03:44:22;5.55;;;0.80;;
28353;SDS011;15603;50.878;8.036;2022-10-16T03:46:49;7.97;;;1.45;;
28353;SDS011;15603;50.878;8.036;2022-10-16T03:49:16;5.45;;;1.20;;
28353;SDS011;15603;50.878;8.036;2022-10-16T03:51:43;1.63;;;1.02;;
28353;SDS011;15603;50.878;8.036;2022-10-16T03:54:10;2.58;;;1.00;;
28353;SDS011;15603;50.878;8.036;2022-10-16T03:56:38;9.68;;;0.90;;
28353;SDS011;15603;50.878;8.036;2022-10-16T03:59:05;6.63;;;0.90;;
28353;SDS011;15603;50.878;8.036;2022-10-16T04:01:32;3.30;;;1.30;;
28353;SDS011;15603;50.878;8.036;2022-10-16T04:03:59;13.30;;;1.40;;
28353;SDS011;15603;50.878;8.036;2022-10-16T04:06:26;9.40;;;1.10;;
28353;SDS011;15603;50.878;8.036;2022-10-16T04:08:53;1.90;;;0.88;;
28353;SDS011;15603;50.878;8.036;2022-10-16T04:11:20;10.77;;;1.45;;
28353;SDS011;15603;50.878;8.036;2022-10-16T04:13:47;7.53;;;1.17;;
28353;SDS011;15603;50.878;8.036;2022-10-16T04:16:14;9.93;;;1.20;;
28353;SDS011;15603;50.878;8.036;2022-10-16T04:18:41;2.70;;;0.90;;
28353;SDS011;15603;50.878;8.036;2022-10-16T04:21:08;4.00;;;1.15;;
28353;SDS011;15603;50.878;8.036;2022-10-16T04:23:35;2.22;;;1.20;;
28353;SDS011;15603;50.878;8.036;2022-10-16T04:26:02;3.17;;;0.93;;
28353;SDS011;15603;50.878;8.036;2022-10-16T04:28:30;2.80;;;1.00;;
28353;SDS011;15603;50.878;8.036;2022-10-16T04:30:57;22.17;;;1.40;;
28353;SDS011;15603;50.878;8.036;2022-10-16T04:33:24;5.60;;;0.90;;
28353;SDS011;15603;50.878;8.036;2022-10-16T04:35:57;10.27;;;1.63;;
28353;SDS011;15603;50.878;8.036;2022-10-16T04:38:26;10.90;;;0.73;;
28353;SDS011;15603;50.878;8.036;2022-10-16T04:40:53;6.68;;;1.15;;
28353;SDS011;15603;50.878;8.036;2022-10-16T04:43:20;0.85;;;0.63;;
28353;SDS011;15603;50.878;8.036;2022-10-16T04:45:48;11.10;;;0.80;;
28353;SDS011;15603;50.878;8.036;2022-10-16T04:48:17;9.98;;;0.73;;
28353;SDS011;15603;50.878;8.036;2022-10-16T04:50:45;10.60;;;0.70;;
28353;SDS011;15603;50.878;8.036;2022-10-16T04:53:17;0.85;;;0.40;;
28353;SDS011;15603;50.878;8.036;2022-10-16T04:55:44;6.85;;;0.77;;
28353;SDS011;15603;50.878;8.036;2022-10-16T04:58:11;6.25;;;0.73;;
28353;SDS011;15603;50.878;8.036;2022-10-16T05:00:38;5.82;;;0.50;;
28353;SDS011;15603;50.878;8.036;2022-10-16T05:03:06;5.78;;;0.50;;
28353;SDS011;15603;50.878;8.036;2022-10-16T05:05:35;1.02;;;0.70;;
28353;SDS011;15603;50.878;8.036;2022-10-16T05:08:03;4.72;;;0.82;;
28353;SDS011;15603;50.878;8.036;2022-10-16T05:10:30;1.52;;;0.88;;
28353;SDS011;15603;50.878;8.036;2022-10-16T05:12:57;0.80;;;0.60;;
28353;SDS011;15603;50.878;8.036;2022-10-16T05:15:25;5.78;;;0.95;;
28353;SDS011;15603;50.878;8.036;2022-10-16T05:17:53;2.95;;;0.57;;
28353;SDS011;15603;50.878;8.036;2022-10-16T05:20:21;5.57;;;0.75;;
28353;SDS011;15603;50.878;8.036;2022-10-16T05:22:48;2.75;;;0.73;;
28353;SDS011;15603;50.878;8.036;2022-10-16T05:25:15;0.35;;;0.35;;
28353;SDS011;15603;50.878;8.036;2022-10-16T05:27:43;1.02;;;0.43;;
28353;SDS011;15603;50.878;8.036;2022-10-16T05:30:10;4.65;;;0.63;;
28353;SDS011;15603;50.878;8.036;2022-10-16T05:32:38;0.80;;;0.57;;
28353;SDS011;15603;50.878;8.036;2022-10-16T05:35:05;3.67;;;0.63;;
28353;SDS011;15603;50.878;8.036;2022-10-16T05:37:38;7.80;;;0.70;;
28353;SDS011;15603;50.878;8.036;2022-10-16T05:40:05;9.50;;;0.70;;
28353;SDS011;15603;50.878;8.036;2022-10-16T05:42:32;4.88;;;0.70;;
28353;SDS011;15603;50.878;8.036;2022-10-16T05:44:59;8.98;;;1.02;;
28353;SDS011;15603;50.878;8.036;2022-10-16T05:47:27;5.57;;;0.77;;
28353;SDS011;15603;50.878;8.036;2022-10-16T05:49:54;1.67;;;0.50;;
28353;SDS011;15603;50.878;8.036;2022-10-16T05:52:22;2.08;;;0.70;;
28353;SDS011;15603;50.878;8.036;2022-10-16T05:54:49;0.55;;;0.40;;
28353;SDS011;15603;50.878;8.036;2022-10-16T05:57:16;13.40;;;0.60;;
28353;SDS011;15603;50.878;8.036;2022-10-16T05:59:43;4.57;;;0.60;;
28353;SDS011;15603;50.878;8.036;2022-10-16T06:02:12;3.08;;;0.70;;
28353;SDS011;15603;50.878;8.036;2022-10-16T06:04:40;6.75;;;0.57;;
28353;SDS011;15603;50.878;8.036;2022-10-16T06:07:07;4.75;;;0.63;;
28353;SDS011;15603;50.878;8.036;2022-10-16T06:09:34;2.53;;;0.50;;
28353;SDS011;15603;50.878;8.036;2022-10-16T06:12:01;6.45;;;0.85;;
28353;SDS011;15603;50.878;8.036;2022-10-16T06:14:28;2.17;;;0.80;;
28353;SDS011;15603;50.878;8.036;2022-10-16T06:16:55;4.57;;;0.40;;
28353;SDS011;15603;50.878;8.036;2022-10-16T06:19:22;6.75;;;0.65;;
28353;SDS011;15603;50.878;8.036;2022-10-16T06:21:50;2.10;;;0.57;;
28353;SDS011;15603;50.878;8.036;2022-10-16T06:24:17;4.00;;;0.50;;
28353;SDS011;15603;50.878;8.036;2022-10-16T06:26:44;3.88;;;0.90;;
28353;SDS011;15603;50.878;8.036;2022-10-16T06:29:11;5.78;;;0.60;;
28353;SDS011;15603;50.878;8.036;2022-10-16T06:31:38;4.57;;;0.40;;
28353;SDS011;15603;50.878;8.036;2022-10-16T06:34:05;4.03;;;1.27;;
28353;SDS011;15603;50.878;8.036;2022-10-16T06:36:36;3.03;;;0.93;;
28353;SDS011;15603;50.878;8.036;2022-10-16T06:39:03;6.00;;;2.33;;
28353;SDS011;15603;50.878;8.036;2022-10-16T06:41:32;2.78;;;0.38;;
28353;SDS011;15603;50.878;8.036;2022-10-16T06:44:08;3.03;;;0.57;;
28353;SDS011;15603;50.878;8.036;2022-10-16T06:46:35;1.13;;;0.40;;
28353;SDS011;15603;50.878;8.036;2022-10-16T06:49:02;2.78;;;0.50;;
28353;SDS011;15603;50.878;8.036;2022-10-16T06:51:29;1.40;;;0.50;;
28353;SDS011;15603;50.878;8.036;2022-10-16T06:53:58;2.13;;;0.75;;
28353;SDS011;15603;50.878;8.036;2022-10-16T06:56:30;2.33;;;0.40;;
28353;SDS011;15603;50.878;8.036;2022-10-16T06:58:58;1.58;;;0.57;;
28353;SDS011;15603;50.878;8.036;2022-10-16T07:01:26;1.30;;;0.45;;
28353;SDS011;15603;50.878;8.036;2022-10-16T07:03:54;9.65;;;0.70;;
28353;SDS011;15603;50.878;8.036;2022-10-16T07:06:22;3.95;;;1.33;;
28353;SDS011;15603;50.878;8.036;2022-10-16T07:08:50;4.10;;;0.60;;
28353;SDS011;15603;50.878;8.036;2022-10-16T07:11:19;1.02;;;0.60;;
28353;SDS011;15603;50.878;8.036;2022-10-16T07:13:48;1.75;;;0.70;;
28353;SDS011;15603;50.878;8.036;2022-10-16T07:16:23;1.40;;;0.77;;
28353;SDS011;15603;50.878;8.036;2022-10-16T07:18:53;3.95;;;0.60;;
28353;SDS011;15603;50.878;8.036;2022-10-16T07:21:25;0.70;;;0.52;;
28353;SDS011;15603;50.878;8.036;2022-10-16T07:23:57;0.70;;;0.65;;
28353;SDS011;15603;50.878;8.036;2022-10-16T07:26:26;2.00;;;0.68;;
28353;SDS011;15603;50.878;8.036;2022-10-16T07:28:54;0.80;;;0.60;;
28353;SDS011;15603;50.878;8.036;2022-10-16T07:31:22;2.25;;;0.88;;
28353;SDS011;15603;50.878;8.036;2022-10-16T07:33:50;1.20;;;0.40;;
28353;SDS011;15603;50.878;8.036;2022-10-16T07:36:18;4.78;;;0.40;;
28353;SDS011;15603;50.878;8.036;2022-10-16T07:38:47;3.97;;;0.30;;
28353;SDS011;15603;50.878;8.036;2022-10-16T07:41:16;1.85;;;0.40;;
28353;SDS011;15603;50.878;8.036;2022-10-16T07:43:48;0.90;;;0.30;;
28353;SDS011;15603;50.878;8.036;2022-10-16T07:46:18;2.00;;;0.40;;
28353;SDS011;15603;50.878;8.036;2022-10-16T07:48:46;2.05;;;0.50;;
28353;SDS011;15603;50.878;8.036;2022-10-16T07:51:17;1.50;;;0.47;;
28353;SDS011;15603;50.878;8.036;2022-10-16T07:53:45;5.10;;;0.38;;
28353;SDS011;15603;50.878;8.036;2022-10-16T07:56:13;3.80;;;0.57;;
28353;SDS011;15603;50.878;8.036;2022-10-16T07:58:41;2.47;;;0.30;;
28353;SDS011;15603;50.878;8.036;2022-10-16T08:01:09;3.60;;;0.50;;
28353;SDS011;15603;50.878;8.036;2022-10-16T08:03:40;4.65;;;1.38;;
28353;SDS011;15603;50.878;8.036;2022-10-16T08:06:08;4.68;;;0.50;;
28353;SDS011;15603;50.878;8.036;2022-10-16T08:08:35;3.40;;;0.50;;
28353;SDS011;15603;50.878;8.036;2022-10-16T08:11:02;1.25;;;0.30;;
28353;SDS011;15603;50.878;8.036;2022-10-16T08:13:31;3.05;;;0.30;;
28353;SDS011;15603;50.878;8.036;2022-10-16T08:15:58;0.63;;;0.20;;
28353;SDS011;15603;50.878;8.036;2022-10-16T08:18:25;6.15;;;0.40;;
28353;SDS011;15603;50.878;8.036;2022-10-16T08:20:58;0.30;;;0.30;;
28353;SDS011;15603;50.878;8.036;2022-10-16T08:23:27;1.85;;;0.40;;
28353;SDS011;15603;50.878;8.036;2022-10-16T08:25:55;2.47;;;0.28;;
28353;SDS011;15603;50.878;8.036;2022-10-16T08:28:27;2.13;;;0.32;;
28353;SDS011;15603;50.878;8.036;2022-10-16T08:30:55;1.65;;;0.30;;
28353;SDS011;15603;50.878;8.036;2022-10-16T08:33:23;0.95;;;0.50;;
28353;SDS011;15603;50.878;8.036;2022-10-16T08:35:51;2.08;;;0.60;;
28353;SDS011;15603;50.878;8.036;2022-10-16T08:38:20;3.13;;;0.50;;
28353;SDS011;15603;50.878;8.036;2022-10-16T08:40:47;1.77;;;0.50;;
28353;SDS011;15603;50.878;8.036;2022-10-16T08:43:22;6.82;;;0.35;;
28353;SDS011;15603;50.878;8.036;2022-10-16T08:49:13;1.83;;;0.60;;
28353;SDS011;15603;50.878;8.036;2022-10-16T08:51:41;2.63;;;0.50;;
28353;SDS011;15603;50.878;8.036;2022-10-16T08:57:19;0.75;;;0.30;;
28353;SDS011;15603;50.878;8.036;2022-10-16T08:59:51;3.07;;;0.33;;
28353;SDS011;15603;50.878;8.036;2022-10-16T09:02:27;0.63;;;0.32;;
28353;SDS011;15603;50.878;8.036;2022-10-16T09:05:03;0.30;;;0.20;;
28353;SDS011;15603;50.878;8.036;2022-10-16T09:07:41;4.35;;;0.28;;
28353;SDS011;15603;50.878;8.036;2022-10-16T09:10:43;4.65;;;0.40;;
28353;SDS011;15603;50.878;8.036;2022-10-16T09:16:13;6.78;;;0.45;;
28353;SDS011;15603;50.878;8.036;2022-10-16T09:21:45;1.45;;;0.60;;
28353;SDS011;15603;50.878;8.036;2022-10-16T09:26:40;2.00;;;0.30;;
28353;SDS011;15603;50.878;8.036;2022-10-16T09:29:18;0.45;;;0.20;;
28353;SDS011;15603;50.878;8.036;2022-10-16T09:31:48;1.70;;;0.40;;
28353;SDS011;15603;50.878;8.036;2022-10-16T09:36:59;1.15;;;0.38;;
28353;SDS011;15603;50.878;8.036;2022-10-16T09:39:29;0.45;;;0.28;;
28353;SDS011;15603;50.878;8.036;2022-10-16T09:41:56;2.55;;;0.40;;
28353;SDS011;15603;50.878;8.036;2022-10-16T09:44:25;12.13;;;2.75;;
28353;SDS011;15603;50.878;8.036;2022-10-16T09:47:03;4.60;;;0.50;;
28353;SDS011;15603;50.878;8.036;2022-10-16T09:49:32;6.50;;;1.38;;
28353;SDS011;15603;50.878;8.036;2022-10-16T09:52:03;8.68;;;1.05;;
28353;SDS011;15603;50.878;8.036;2022-10-16T09:54:38;3.35;;;0.30;;
28353;SDS011;15603;50.878;8.036;2022-10-16T09:57:16;1.33;;;0.45;;
28353;SDS011;15603;50.878;8.036;2022-10-16T09:59:46;2.92;;;0.20;;
28353;SDS011;15603;50.878;8.036;2022-10-16T10:02:15;1.20;;;0.25;;
28353;SDS011;15603;50.878;8.036;2022-10-16T10:04:49;1.88;;;0.30;;
28353;SDS011;15603;50.878;8.036;2022-10-16T10:07:19;3.20;;;0.28;;
28353;SDS011;15603;50.878;8.036;2022-10-16T10:09:51;0.43;;;0.20;;
28353;SDS011;15603;50.878;8.036;2022-10-16T10:12:20;1.95;;;0.40;;
28353;SDS011;15603;50.878;8.036;2022-10-16T10:14:56;9.70;;;0.55;;
28353;SDS011;15603;50.878;8.036;2022-10-16T10:17:25;1.13;;;0.30;;
28353;SDS011;15603;50.878;8.036;2022-10-16T10:19:55;1.98;;;0.47;;
28353;SDS011;15603;50.878;8.036;2022-10-16T10:23:01;1.20;;;0.38;;
28353;SDS011;15603;50.878;8.036;2022-10-16T10:26:05;3.22;;;0.40;;
28353;SDS011;15603;50.878;8.036;2022-10-16T10:28:44;16.55;;;4.95;;
28353;SDS011;15603;50.878;8.036;2022-10-16T10:31:50;5.43;;;0.50;;
28353;SDS011;15603;50.878;8.036;2022-10-16T10:45:43;2.42;;;0.35;;
28353;SDS011;15603;50.878;8.036;2022-10-16T10:48:28;3.67;;;1.15;;
28353;SDS011;15603;50.878;8.036;2022-10-16T10:53:59;3.25;;;0.50;;
28353;SDS011;15603;50.878;8.036;2022-10-16T10:57:02;5.00;;;0.47;;
28353;SDS011;15603;50.878;8.036;2022-10-16T10:59:52;4.80;;;0.55;;
28353;SDS011;15603;50.878;8.036;2022-10-16T11:02:33;2.90;;;0.43;;
28353;SDS011;15603;50.878;8.036;2022-10-16T11:07:54;1.33;;;0.45;;
28353;SDS011;15603;50.878;8.036;2022-10-16T11:10:28;6.00;;;1.10;;
28353;SDS011;15603;50.878;8.036;2022-10-16T11:13:06;1.35;;;0.47;;
28353;SDS011;15603;50.878;8.036;2022-10-16T11:15:37;0.50;;;0.13;;
28353;SDS011;15603;50.878;8.036;2022-10-16T11:20:51;3.95;;;0.40;;
28353;SDS011;15603;50.878;8.036;2022-10-16T11:23:30;6.03;;;0.30;;
28353;SDS011;15603;50.878;8.036;2022-10-16T11:26:05;5.53;;;0.65;;
28353;SDS011;15603;50.878;8.036;2022-10-16T11:29:02;1.10;;;0.40;;
28353;SDS011;15603;50.878;8.036;2022-10-16T11:31:42;0.85;;;0.30;;
28353;SDS011;15603;50.878;8.036;2022-10-16T11:34:19;2.25;;;0.20;;
28353;SDS011;15603;50.878;8.036;2022-10-16T11:39:38;1.58;;;0.30;;
28353;SDS011;15603;50.878;8.036;2022-10-16T11:42:19;2.38;;;0.90;;
28353;SDS011;15603;50.878;8.036;2022-10-16T11:45:08;1.88;;;0.30;;
28353;SDS011;15603;50.878;8.036;2022-10-16T11:50:51;1.02;;;0.17;;
28353;SDS011;15603;50.878;8.036;2022-10-16T11:56:15;1.15;;;0.30;;
28353;SDS011;15603;50.878;8.036;2022-10-16T11:58:51;6.40;;;0.30;;
28353;SDS011;15603;50.878;8.036;2022-10-16T12:01:33;1.88;;;0.40;;
28353;SDS011;15603;50.878;8.036;2022-10-16T12:12:22;3.10;;;0.20;;
28353;SDS011;15603;50.878;8.036;2022-10-16T12:15:01;0.65;;;0.20;;
28353;SDS011;15603;50.878;8.036;2022-10-16T12:17:56;0.93;;;0.30;;
28353;SDS011;15603;50.878;8.036;2022-10-16T12:20:27;1.60;;;0.40;;
28353;SDS011;15603;50.878;8.036;2022-10-16T12:22:58;0.95;;;0.30;;
28353;SDS011;15603;50.878;8.036;2022-10-16T12:28:06;1.55;;;0.20;;
28353;SDS011;15603;50.878;8.036;2022-10-16T12:30:51;1.95;;;0.17;;
28353;SDS011;15603;50.878;8.036;2022-10-16T12:33:22;1.90;;;0.22;;
28353;SDS011;15603;50.878;8.036;2022-10-16T12:35:52;4.57;;;0.30;;
28353;SDS011;15603;50.878;8.036;2022-10-16T12:38:21;1.55;;;0.40;;
28353;SDS011;15603;50.878;8.036;2022-10-16T12:40:58;0.68;;;0.30;;
28353;SDS011;15603;50.878;8.036;2022-10-16T12:43:37;1.13;;;0.30;;
28353;SDS011;15603;50.878;8.036;2022-10-16T12:48:40;1.08;;;0.13;;
28353;SDS011;15603;50.878;8.036;2022-10-16T12:54:38;1.27;;;0.30;;
28353;SDS011;15603;50.878;8.036;2022-10-16T13:02:46;6.82;;;0.40;;
28353;SDS011;15603;50.878;8.036;2022-10-16T13:08:22;0.93;;;0.38;;
28353;SDS011;15603;50.878;8.036;2022-10-16T13:14:13;0.82;;;0.25;;
28353;SDS011;15603;50.878;8.036;2022-10-16T13:16:56;0.30;;;0.17;;
28353;SDS011;15603;50.878;8.036;2022-10-16T13:22:34;4.93;;;0.50;;
28353;SDS011;15603;50.878;8.036;2022-10-16T13:26:07;4.22;;;0.32;;
28353;SDS011;15603;50.878;8.036;2022-10-16T13:28:13;0.90;;;0.28;;
28353;SDS011;15603;50.878;8.036;2022-10-16T13:30:44;2.05;;;0.32;;
28353;SDS011;15603;50.878;8.036;2022-10-16T13:33:35;3.67;;;0.30;;
28353;SDS011;15603;50.878;8.036;2022-10-16T13:36:04;5.03;;;0.25;;
28353;SDS011;15603;50.878;8.036;2022-10-16T13:38:33;0.73;;;0.20;;
28353;SDS011;15603;50.878;8.036;2022-10-16T13:41:03;5.65;;;1.17;;
28353;SDS011;15603;50.878;8.036;2022-10-16T13:43:35;2.75;;;0.30;;
28353;SDS011;15603;50.878;8.036;2022-10-16T13:48:34;2.58;;;0.30;;
28353;SDS011;15603;50.878;8.036;2022-10-16T13:53:33;0.85;;;0.20;;
28353;SDS011;15603;50.878;8.036;2022-10-16T13:56:06;2.63;;;0.30;;
28353;SDS011;15603;50.878;8.036;2022-10-16T13:58:37;0.28;;;0.17;;
28353;SDS011;15603;50.878;8.036;2022-10-16T14:01:05;0.73;;;0.20;;
28353;SDS011;15603;50.878;8.036;2022-10-16T14:03:43;4.47;;;0.30;;
28353;SDS011;15603;50.878;8.036;2022-10-16T14:06:14;3.45;;;0.20;;
28353;SDS011;15603;50.878;8.036;2022-10-16T14:08:44;0.85;;;0.13;;
28353;SDS011;15603;50.878;8.036;2022-10-16T14:11:20;2.35;;;0.50;;
28353;SDS011;15603;50.878;8.036;2022-10-16T14:13:51;1.33;;;0.38;;
28353;SDS011;15603;50.878;8.036;2022-10-16T14:16:23;1.85;;;0.28;;
28353;SDS011;15603;50.878;8.036;2022-10-16T14:19:03;2.85;;;0.30;;
28353;SDS011;15603;50.878;8.036;2022-10-16T14:21:33;1.67;;;0.47;;
28353;SDS011;15603;50.878;8.036;2022-10-16T14:24:10;2.58;;;0.25;;
28353;SDS011;15603;50.878;8.036;2022-10-16T14:26:44;1.52;;;0.20;;
28353;SDS011;15603;50.878;8.036;2022-10-16T14:29:20;1.40;;;0.20;;
28353;SDS011;15603;50.878;8.036;2022-10-16T14:32:04;0.30;;;0.20;;
28353;SDS011;15603;50.878;8.036;2022-10-16T14:34:33;1.95;;;0.20;;
28353;SDS011;15603;50.878;8.036;2022-10-16T14:37:23;0.77;;;0.30;;
28353;SDS011;15603;50.878;8.036;2022-10-16T14:39:55;1.95;;;0.20;;
28353;SDS011;15603;50.878;8.036;2022-10-16T14:42:23;1.48;;;0.20;;
28353;SDS011;15603;50.878;8.036;2022-10-16T14:44:53;1.08;;;0.40;;
28353;SDS011;15603;50.878;8.036;2022-10-16T14:47:22;1.05;;;0.20;;
28353;SDS011;15603;50.878;8.036;2022-10-16T14:49:54;0.50;;;0.35;;
28353;SDS011;15603;50.878;8.036;2022-10-16T14:52:22;4.63;;;0.10;;
28353;SDS011;15603;50.878;8.036;2022-10-16T14:54:49;5.90;;;0.20;;
28353;SDS011;15603;50.878;8.036;2022-10-16T14:57:24;0.95;;;0.20;;
28353;SDS011;15603;50.878;8.036;2022-10-16T14:59:56;0.20;;;0.20;;
28353;SDS011;15603;50.878;8.036;2022-10-16T15:02:30;4.88;;;0.55;;
28353;SDS011;15603;50.878;8.036;2022-10-16T15:05:35;2.15;;;0.30;;
28353;SDS011;15603;50.878;8.036;2022-10-16T15:07:54;0.52;;;0.20;;
28353;SDS011;15603;50.878;8.036;2022-10-16T15:10:22;0.47;;;0.30;;
28353;SDS011;15603;50.878;8.036;2022-10-16T15:12:52;2.72;;;0.30;;
28353;SDS011;15603;50.878;8.036;2022-10-16T15:17:50;4.75;;;0.57;;
28353;SDS011;15603;50.878;8.036;2022-10-16T15:20:23;1.90;;;0.40;;
28353;SDS011;15603;50.878;8.036;2022-10-16T15:22:52;0.80;;;0.30;;
28353;SDS011;15603;50.878;8.036;2022-10-16T15:27:59;1.40;;;0.38;;
28353;SDS011;15603;50.878;8.036;2022-10-16T15:30:26;2.05;;;0.40;;
28353;SDS011;15603;50.878;8.036;2022-10-16T15:32:54;0.20;;;0.20;;
28353;SDS011;15603;50.878;8.036;2022-10-16T15:35:21;6.63;;;0.55;;
28353;SDS011;15603;50.878;8.036;2022-10-16T15:37:48;0.63;;;0.50;;
28353;SDS011;15603;50.878;8.036;2022-10-16T15:40:16;2.45;;;0.60;;
28353;SDS011;15603;50.878;8.036;2022-10-16T15:42:45;1.58;;;0.60;;
28353;SDS011;15603;50.878;8.036;2022-10-16T15:45:13;2.15;;;0.45;;
28353;SDS011;15603;50.878;8.036;2022-10-16T15:47:40;2.22;;;0.50;;
28353;SDS011;15603;50.878;8.036;2022-10-16T15:50:12;2.38;;;0.57;;
28353;SDS011;15603;50.878;8.036;2022-10-16T15:52:41;2.67;;;0.35;;
28353;SDS011;15603;50.878;8.036;2022-10-16T15:55:09;1.02;;;0.30;;
28353;SDS011;15603;50.878;8.036;2022-10-16T15:57:37;2.85;;;0.43;;
28353;SDS011;15603;50.878;8.036;2022-10-16T16:00:07;4.70;;;0.57;;
28353;SDS011;15603;50.878;8.036;2022-10-16T16:02:40;3.55;;;0.57;;
28353;SDS011;15603;50.878;8.036;2022-10-16T16:05:08;7.80;;;1.92;;
28353;SDS011;15603;50.878;8.036;2022-10-16T16:07:37;1.77;;;0.60;;
28353;SDS011;15603;50.878;8.036;2022-10-16T16:10:06;13.75;;;1.80;;
28353;SDS011;15603;50.878;8.036;2022-10-16T16:12:35;4.22;;;1.17;;
28353;SDS011;15603;50.878;8.036;2022-10-16T16:15:03;0.80;;;0.30;;
28353;SDS011;15603;50.878;8.036;2022-10-16T16:17:34;1.38;;;0.40;;
28353;SDS011;15603;50.878;8.036;2022-10-16T16:20:02;2.00;;;0.52;;
28353;SDS011;15603;50.878;8.036;2022-10-16T16:22:31;2.38;;;0.60;;
28353;SDS011;15603;50.878;8.036;2022-10-16T16:24:58;0.82;;;0.35;;
28353;SDS011;15603;50.878;8.036;2022-10-16T16:27:25;1.58;;;0.40;;
28353;SDS011;15603;50.878;8.036;2022-10-16T16:29:53;2.40;;;0.70;;
28353;SDS011;15603;50.878;8.036;2022-10-16T16:32:21;2.97;;;0.65;;
28353;SDS011;15603;50.878;8.036;2022-10-16T16:34:49;4.88;;;0.70;;
28353;SDS011;15603;50.878;8.036;2022-10-16T16:37:16;1.65;;;0.40;;
28353;SDS011;15603;50.878;8.036;2022-10-16T16:39:43;3.80;;;0.60;;
28353;SDS011;15603;50.878;8.036;2022-10-16T16:42:10;5.25;;;0.60;;
28353;SDS011;15603;50.878;8.036;2022-10-16T16:44:37;3.95;;;0.70;;
28353;SDS011;15603;50.878;8.036;2022-10-16T16:47:05;8.85;;;1.60;;
28353;SDS011;15603;50.878;8.036;2022-10-16T16:49:32;2.45;;;0.60;;
28353;SDS011;15603;50.878;8.036;2022-10-16T16:51:59;5.63;;;0.43;;
28353;SDS011;15603;50.878;8.036;2022-10-16T16:54:27;5.60;;;0.65;;